Time;durP1;ratioP1;P1;durP2;ratioP2;P2;SDS_P1;SDS_P2;PMS_P1;PMS_P2;Temp;Humidity;BMP_temperature;BMP_pressure;BME280_temperature;BME280_humidity;BME280_pressure;Samples;Min_cycle;Max_cycle;Signal;HPM_P1;HPM_P2
2024/04/21 00:02:30;;;;;;;1.42;1.33;;;;;;;2.24;88.61;101430.03;6578855;21;20247;-70
2024/04/21 00:05:12;;;;;;;2.20;1.73;;;;;;;2.21;88.54;101422.28;6581077;21;20224;-69
2024/04/21 00:07:51;;;;;;;1.58;1.48;;;;;;;2.18;88.33;101429.56;6578925;21;20246;-71
2024/04/21 00:10:31;;;;;;;3.25;2.90;;;;;;;2.12;88.51;101430.13;6537149;21;20331;-70
2024/04/21 00:13:01;;;;;;;2.20;1.27;;;;;;;2.02;88.96;101423.91;6579041;21;20330;-71
2024/04/21 00:15:40;;;;;;;0.90;0.70;;;;;;;2.22;88.06;101424.84;6579116;21;20228;-69
2024/04/21 00:18:17;;;;;;;2.88;1.60;;;;;;;2.10;87.75;101429.41;6580755;21;20232;-69
2024/04/21 00:21:01;;;;;;;2.20;1.80;;;;;;;2.03;88.25;101433.59;6581310;21;20247;-70
2024/04/21 00:32:22;;;;;;;0.90;0.75;;;;;;;1.74;90.99;101429.97;6514406;22;20221;-82
2024/04/21 00:34:57;;;;;;;1.17;0.90;;;;;;;1.71;91.80;101432.88;6554070;21;20263;-81
2024/04/21 00:38:18;;;;;;;4.28;1.35;;;;;;;1.63;92.31;101430.88;6514248;22;20279;-81
2024/04/21 00:40:46;;;;;;;1.33;1.05;;;;;;;1.59;93.46;101431.28;6553575;21;20205;-80
2024/04/21 00:43:17;;;;;;;6.30;2.58;;;;;;;1.61;93.57;101439.97;6554061;21;20217;-80
2024/04/21 00:45:47;;;;;;;0.90;0.75;;;;;;;1.57;94.13;101430.56;6510975;22;20225;-80
2024/04/21 00:48:22;;;;;;;3.05;1.08;;;;;;;1.48;94.16;101436.66;6554266;21;20237;-79
2024/04/21 00:50:56;;;;;;;1.17;1.08;;;;;;;1.57;93.42;101443.88;6554591;21;20292;-79
2024/04/21 00:53:27;;;;;;;2.33;1.83;;;;;;;1.58;93.56;101450.91;6552918;21;20225;-81
2024/04/21 00:55:57;;;;;;;1.65;0.85;;;;;;;1.53;93.61;101442.47;6553690;22;20268;-79
2024/04/21 00:58:29;;;;;;;1.75;1.30;;;;;;;1.55;93.69;101443.19;6508990;22;20241;-80
2024/04/21 01:00:59;;;;;;;2.20;1.67;;;;;;;1.48;94.17;101439.34;6553427;21;20214;-79
2024/04/21 01:03:37;;;;;;;1.90;1.70;;;;;;;1.43;94.43;101447.72;6554410;21;20217;-80
2024/04/21 01:06:06;;;;;;;4.15;2.20;;;;;;;1.45;94.63;101444.94;6554101;21;20217;-79
2024/04/21 01:08:37;;;;;;;1.50;1.40;;;;;;;1.35;95.37;101446.69;6510418;21;20214;-79
2024/04/21 01:11:14;;;;;;;1.23;1.13;;;;;;;1.22;95.85;101450.38;6552220;21;20221;-79
2024/04/21 01:13:45;;;;;;;1.08;0.98;;;;;;;1.11;96.41;101450.44;6537751;22;20221;-80
2024/04/21 01:16:15;;;;;;;1.77;0.93;;;;;;;1.01;97.30;101446.84;6505481;21;20225;-79
2024/04/21 01:18:49;;;;;;;1.65;1.35;;;;;;;0.96;98.20;101454.38;6553884;21;20282;-79
2024/04/21 01:21:19;;;;;;;2.85;1.80;;;;;;;0.99;98.26;101448.78;6554154;21;20229;-80
2024/04/21 01:23:53;;;;;;;0.80;0.60;;;;;;;0.81;99.22;101450.31;6554123;21;20221;-81
2024/04/21 01:26:22;;;;;;;1.15;1.05;;;;;;;0.72;99.71;101449.25;6552311;22;20228;-81
2024/04/21 01:28:54;;;;;;;0.82;0.68;;;;;;;0.65;100.00;101447.19;6553148;21;20233;-80
2024/04/21 01:31:24;;;;;;;1.95;1.83;;;;;;;0.61;100.00;101459.94;6508235;22;20221;-80
2024/04/21 01:33:55;;;;;;;1.10;0.80;;;;;;;0.58;100.00;101454.00;6551654;22;20296;-81
2024/04/21 01:36:24;;;;;;;2.00;1.52;;;;;;;0.60;100.00;101457.38;6553080;22;20265;-82
2024/04/21 01:38:58;;;;;;;3.45;1.35;;;;;;;0.54;100.00;101460.53;6551659;21;20225;-80
2024/04/21 01:41:27;;;;;;;1.10;0.98;;;;;;;0.58;100.00;101456.69;6537782;22;20221;-80
2024/04/21 01:43:59;;;;;;;2.30;2.10;;;;;;;0.58;100.00;101456.69;6552572;22;20314;-79
2024/04/21 01:46:27;;;;;;;3.90;1.23;;;;;;;0.60;100.00;101452.06;6509307;22;20253;-80
2024/04/21 01:48:58;;;;;;;1.35;1.25;;;;;;;0.59;100.00;101461.00;6550419;22;20299;-80
2024/04/21 01:51:26;;;;;;;1.65;1.55;;;;;;;0.54;100.00;101455.19;6543011;22;20221;-81
2024/04/21 01:54:00;;;;;;;2.65;2.47;;;;;;;0.52;100.00;101454.50;6544639;22;20268;-80
2024/04/21 01:56:29;;;;;;;3.47;1.23;;;;;;;0.56;100.00;101459.44;6552943;21;20224;-80
2024/04/21 01:59:01;;;;;;;2.28;2.08;;;;;;;0.48;100.00;101455.72;6510441;21;20229;-79
2024/04/21 02:01:30;;;;;;;1.85;1.73;;;;;;;0.50;100.00;101465.25;6510378;21;20286;-80
2024/04/21 02:04:01;;;;;;;1.85;0.95;;;;;;;0.44;100.00;101466.59;6509326;22;20256;-81
2024/04/21 02:06:30;;;;;;;1.48;1.30;;;;;;;0.40;100.00;101472.28;6553732;21;20243;-80
2024/04/21 02:09:07;;;;;;;1.67;1.42;;;;;;;0.40;100.00;101470.47;6553587;21;20213;-79
2024/04/21 02:11:35;;;;;;;1.88;1.52;;;;;;;0.36;100.00;101474.38;6553254;21;20217;-81
2024/04/21 02:14:06;;;;;;;1.10;0.98;;;;;;;0.32;100.00;101475.59;6553852;21;20244;-80
2024/04/21 02:16:35;;;;;;;1.15;1.05;;;;;;;0.34;100.00;101470.13;6510306;22;20275;-79
2024/04/21 02:19:08;;;;;;;1.92;1.83;;;;;;;0.32;100.00;101472.06;6554201;21;20205;-80
2024/04/21 02:21:37;;;;;;;1.40;1.30;;;;;;;0.30;100.00;101472.19;6553711;21;20233;-82
2024/04/21 02:24:11;;;;;;;1.67;1.58;;;;;;;0.24;100.00;101477.16;6553890;22;20217;-80
2024/04/21 02:26:40;;;;;;;1.20;1.10;;;;;;;0.17;100.00;101468.81;6552755;21;20252;-80
2024/04/21 02:29:10;;;;;;;3.38;1.95;;;;;;;0.16;100.00;101469.78;6509313;22;20263;-81
2024/04/21 02:31:41;;;;;;;2.35;0.65;;;;;;;0.19;100.00;101472.22;6510405;22;20269;-79
2024/04/21 02:34:12;;;;;;;2.20;1.20;;;;;;;0.25;100.00;101474.38;6553919;21;20210;-80
2024/04/21 02:36:41;;;;;;;1.90;1.45;;;;;;;0.20;100.00;101470.38;6553633;21;20229;-80
2024/04/21 02:39:15;;;;;;;1.42;1.30;;;;;;;0.15;100.00;101476.06;6503056;22;20315;-80
2024/04/21 02:41:43;;;;;;;0.93;0.77;;;;;;;0.15;100.00;101477.88;6529991;22;20270;-81
2024/04/21 02:44:14;;;;;;;3.50;3.00;;;;;;;0.12;100.00;101478.97;6554715;21;20283;-80
2024/04/21 02:46:43;;;;;;;0.80;0.60;;;;;;;0.11;100.00;101474.59;6555740;21;20328;-81
2024/04/21 02:49:14;;;;;;;2.10;1.70;;;;;;;0.13;100.00;101480.66;6553015;21;20296;-81
2024/04/21 02:51:43;;;;;;;1.42;1.13;;;;;;;0.19;100.00;101484.66;6554884;21;20352;-80
2024/04/21 02:54:19;;;;;;;0.80;0.60;;;;;;;0.15;99.57;101473.41;6555894;21;20258;-79
2024/04/21 02:56:48;;;;;;;1.15;0.95;;;;;;;0.04;100.00;101476.06;6553894;22;20304;-81
2024/04/21 02:59:20;;;;;;;2.03;1.77;;;;;;;-0.03;100.00;101485.50;6555440;21;20277;-80
2024/04/21 03:01:49;;;;;;;1.20;1.10;;;;;;;-0.09;100.00;101480.63;6555601;21;20264;-80
2024/04/21 03:04:21;;;;;;;2.28;1.50;;;;;;;-0.09;100.00;101478.81;6555390;21;20289;-81
2024/04/21 03:06:50;;;;;;;1.85;1.65;;;;;;;-0.02;100.00;101485.38;6555663;21;20226;-82
2024/04/21 03:09:24;;;;;;;1.02;0.90;;;;;;;0.07;100.00;101481.16;6555086;21;20223;-80
2024/04/21 03:11:53;;;;;;;2.47;1.95;;;;;;;-0.02;100.00;101487.19;6554046;21;20288;-82
2024/04/21 03:14:24;;;;;;;0.80;0.52;;;;;;;-0.04;100.00;101489.13;6543115;22;20304;-80
2024/04/21 03:16:53;;;;;;;1.17;1.08;;;;;;;-0.15;100.00;101486.47;6546216;22;20272;-81
2024/04/21 03:19:24;;;;;;;1.42;1.33;;;;;;;-0.13;100.00;101480.03;6544733;22;20245;-81
2024/04/21 03:21:53;;;;;;;1.17;1.08;;;;;;;-0.21;100.00;101490.44;6497618;22;20263;-80
2024/04/21 03:24:28;;;;;;;1.20;0.82;;;;;;;-0.28;100.00;101486.53;6553715;22;20213;-81
2024/04/21 03:27:02;;;;;;;2.55;1.33;;;;;;;-0.37;100.00;101491.72;6509444;22;20261;-80
2024/04/21 03:29:34;;;;;;;4.13;2.80;;;;;;;-0.39;100.00;101485.69;6553408;22;20256;-81
2024/04/21 03:32:04;;;;;;;0.80;0.70;;;;;;;-0.48;100.00;101479.25;6507914;22;20216;-80
2024/04/21 03:34:36;;;;;;;1.25;1.15;;;;;;;-0.55;100.00;101484.19;6552364;22;20221;-81
2024/04/21 03:37:07;;;;;;;3.22;1.63;;;;;;;-0.46;100.00;101483.50;6551824;22;20238;-80
2024/04/21 03:39:41;;;;;;;1.20;1.10;;;;;;;-0.55;100.00;101486.84;6550294;22;20331;-81
2024/04/21 03:42:12;;;;;;;0.80;0.57;;;;;;;-0.51;100.00;101484.81;6548955;22;20251;-81
2024/04/21 03:44:44;;;;;;;2.97;1.75;;;;;;;-0.58;100.00;101487.06;6546732;22;20269;-80
2024/04/21 03:47:13;;;;;;;1.05;0.90;;;;;;;-0.53;100.00;101492.03;6547170;22;20237;-81
2024/04/21 03:49:45;;;;;;;1.30;1.20;;;;;;;-0.49;100.00;101498.84;6508698;22;20217;-81
2024/04/21 03:52:14;;;;;;;1.75;1.60;;;;;;;-0.50;100.00;101492.66;6552903;22;20216;-80
2024/04/21 03:54:50;;;;;;;2.55;1.30;;;;;;;-0.49;100.00;101494.38;6507781;22;20307;-81
2024/04/21 03:57:19;;;;;;;1.25;1.15;;;;;;;-0.43;100.00;101501.00;6552901;22;20272;-82
2024/04/21 03:59:50;;;;;;;1.42;1.00;;;;;;;-0.50;100.00;101498.00;6550985;22;20295;-81
2024/04/21 04:02:19;;;;;;;2.47;1.65;;;;;;;-0.50;100.00;101513.94;6548218;22;20259;-81
2024/04/21 04:04:51;;;;;;;1.10;0.82;;;;;;;-0.48;100.00;101512.00;6540668;22;20229;-81
2024/04/21 04:07:21;;;;;;;1.35;1.25;;;;;;;-0.37;100.00;101518.31;6537400;22;20249;-81
2024/04/21 04:09:55;;;;;;;2.25;1.40;;;;;;;-0.41;100.00;101523.03;6539434;22;20268;-81
2024/04/21 04:12:24;;;;;;;0.90;0.80;;;;;;;-0.36;100.00;101525.34;6539544;22;20288;-81
2024/04/21 04:14:55;;;;;;;0.90;0.70;;;;;;;-0.31;100.00;101528.50;6494638;22;20229;-82
2024/04/21 04:17:24;;;;;;;3.08;2.33;;;;;;;-0.14;100.00;101530.69;6540016;22;20233;-81
2024/04/21 04:19:55;;;;;;;0.80;0.60;;;;;;;0.51;97.17;101532.69;6539787;22;20221;-82
2024/04/21 04:22:24;;;;;;;2.55;1.35;;;;;;;1.13;92.66;101541.78;6539724;22;20293;-80
2024/04/21 04:24:59;;;;;;;1.83;1.58;;;;;;;1.48;90.13;101551.38;6542544;22;20225;-81
2024/04/21 04:27:28;;;;;;;0.80;0.57;;;;;;;2.03;86.27;101553.72;6491656;22;20241;-81
2024/04/21 04:30:01;;;;;;;0.80;0.60;;;;;;;2.33;82.71;101560.06;6490051;22;20222;-82
2024/04/21 04:32:30;;;;;;;1.30;1.20;;;;;;;2.78;80.15;101563.22;6535568;22;20237;-81
2024/04/21 04:43:42;;;;;;;5.38;1.40;;;;;;;4.36;68.87;101576.22;6298717;22;20214;-81
2024/04/21 04:46:10;;;;;;;1.20;1.10;;;;;;;4.64;67.97;101575.31;6332404;22;20271;-82
2024/04/21 04:48:41;;;;;;;21.60;2.65;;;;;;;3.93;67.88;101577.59;6333522;22;20717;-80
2024/04/21 04:51:09;;;;;;;3.35;1.13;;;;;;;2.80;73.74;101591.53;6333511;22;20328;-81
2024/04/21 04:53:40;;;;;;;0.98;0.65;;;;;;;2.29;76.65;101588.03;6359683;22;20262;-82
2024/04/21 04:56:11;;;;;;;1.10;0.70;;;;;;;1.97;78.67;101585.47;6337651;22;20228;-81
2024/04/21 04:58:44;;;;;;;1.50;0.80;;;;;;;1.58;81.49;101589.63;6381203;22;20217;-82
2024/04/21 05:01:13;;;;;;;0.90;0.70;;;;;;;2.89;78.47;101590.72;6379019;22;20561;-82
2024/04/21 05:03:44;;;;;;;4.07;1.95;;;;;;;4.05;70.28;101597.03;6377169;22;20323;-82
2024/04/21 05:06:13;;;;;;;1.80;1.30;;;;;;;4.47;67.22;101607.38;6381901;22;20265;-82
2024/04/21 05:08:44;;;;;;;2.70;2.17;;;;;;;4.35;66.36;101604.03;6383065;22;20652;-82
2024/04/21 05:11:13;;;;;;;0.90;0.70;;;;;;;5.20;62.90;101601.13;6380937;22;20322;-83
2024/04/21 05:13:46;;;;;;;1.17;1.08;;;;;;;4.15;65.81;101607.75;6377401;22;20287;-82
2024/04/21 05:16:14;;;;;;;2.53;2.42;;;;;;;3.09;70.06;101612.16;6400655;22;20617;-80
2024/04/21 05:18:45;;;;;;;1.00;0.80;;;;;;;2.46;74.05;101604.31;6537154;22;20226;-84
2024/04/21 05:21:14;;;;;;;1.98;0.68;;;;;;;2.11;75.66;101615.34;6551106;22;20225;-82
2024/04/21 05:33:35;;;;;;;1.00;0.90;;;;;;;1.84;78.88;101628.31;6540872;22;20282;-83
2024/04/21 05:36:06;;;;;;;2.42;2.30;;;;;;;2.10;77.66;101629.66;6538027;22;20217;-81
2024/04/21 05:38:37;;;;;;;0.90;0.70;;;;;;;2.33;76.45;101632.19;6537477;22;20232;-80
2024/04/21 05:41:06;;;;;;;0.80;0.60;;;;;;;2.36;75.40;101634.63;6541180;22;20221;-81
2024/04/21 05:43:37;;;;;;;0.90;0.60;;;;;;;2.56;74.44;101637.28;6540120;22;20293;-81
2024/04/21 05:59:19;;;;;;;1.45;1.00;;;;;;;3.01;70.48;101644.91;6533676;22;20640;-81
2024/04/21 06:01:56;;;;;;;1.27;1.05;;;;;;;3.20;70.62;101647.66;6539826;22;20229;-83
2024/04/21 06:13:40;;;;;;;5.25;1.77;;;;;;;3.32;66.75;101667.97;6540601;22;20228;-81
2024/04/21 06:16:13;;;;;;;2.03;1.02;;;;;;;3.22;66.18;101660.91;6540683;22;20221;-81
2024/04/21 06:18:44;;;;;;;3.03;0.98;;;;;;;3.40;65.53;101669.97;6543408;22;20225;-82
2024/04/21 06:21:17;;;;;;;7.63;1.90;;;;;;;3.62;66.82;101680.44;6539169;22;20304;-83
2024/04/21 06:23:51;;;;;;;0.90;0.50;;;;;;;3.81;65.11;101672.44;6540790;22;20300;-82
2024/04/21 06:26:20;;;;;;;2.97;1.02;;;;;;;3.89;63.12;101680.63;6544433;22;20237;-80
2024/04/21 06:28:51;;;;;;;1.75;0.85;;;;;;;4.01;62.99;101688.53;6505646;22;20229;-81
2024/04/21 06:31:23;;;;;;;1.00;0.80;;;;;;;3.76;61.86;101693.44;6550870;22;20213;-81
2024/04/21 06:33:55;;;;;;;1.00;0.75;;;;;;;3.89;60.98;101685.13;6503705;22;20225;-81
2024/04/21 06:36:27;;;;;;;4.03;1.67;;;;;;;3.99;61.84;101693.16;6545469;22;20322;-83
2024/04/21 06:39:23;;;;;;;1.60;1.15;;;;;;;4.08;61.42;101695.00;6508118;21;20251;-80
2024/04/21 06:50:38;;;;;;;1.83;1.02;;;;;;;4.42;57.65;101696.25;6482449;22;20295;-81
2024/04/21 06:53:07;;;;;;;0.90;0.70;;;;;;;4.37;56.99;101704.72;6504257;22;20216;-80
2024/04/21 06:59:47;;;;;;;1.10;0.85;;;;;;;4.53;55.30;101704.16;6494286;22;20233;-82
2024/04/21 07:22:54;;;;;;;1.15;1.02;;;;;;;5.11;49.75;101720.94;6200250;22;20609;-82
2024/04/21 07:26:00;;;;;;;1.23;0.85;;;;;;;5.13;50.48;101718.13;6239859;23;20325;-81
2024/04/21 07:29:49;;;;;;;0.90;0.60;;;;;;;5.22;49.27;101722.59;6160533;22;20230;-81
2024/04/21 07:32:41;;;;;;;0.90;0.77;;;;;;;5.35;49.85;101722.25;6243136;23;20227;-83
2024/04/21 07:35:15;;;;;;;3.88;1.05;;;;;;;5.50;49.51;101726.97;6238276;23;20283;-81
2024/04/21 07:37:45;;;;;;;1.10;1.00;;;;;;;5.69;48.31;101718.81;6276528;22;20246;-82
2024/04/21 07:40:16;;;;;;;1.23;0.80;;;;;;;5.65;47.89;101730.88;6289575;22;20311;-81
2024/04/21 07:47:26;;;;;;;0.90;0.70;;;;;;;5.76;47.98;101726.28;6292527;22;20253;-83
2024/04/21 07:59:07;;;;;;;1.05;0.60;;;;;;;5.91;46.31;101724.78;6533824;22;20228;-84
2024/04/21 08:01:38;;;;;;;0.80;0.50;;;;;;;5.84;46.49;101739.78;6539473;22;20303;-82
2024/04/21 08:04:09;;;;;;;0.80;0.60;;;;;;;5.97;46.48;101737.59;6540167;22;20229;-82
2024/04/21 08:06:39;;;;;;;0.80;0.50;;;;;;;6.09;46.17;101741.78;6531719;22;20241;-81
2024/04/21 08:17:46;;;;;;;1.00;0.70;;;;;;;6.40;45.96;101729.63;6392168;22;20239;-83
2024/04/21 08:20:16;;;;;;;1.45;0.80;;;;;;;6.87;46.29;101732.03;6445168;22;20303;-80
2024/04/21 08:23:45;;;;;;;2.30;1.67;;;;;;;7.07;46.09;101729.97;6436538;22;20231;-81
2024/04/21 08:26:13;;;;;;;1.13;0.80;;;;;;;7.21;45.09;101732.88;6381968;22;1035339;-82
2024/04/21 08:31:57;;;;;;;1.58;1.48;;;;;;;7.43;45.19;101728.81;6431983;22;20334;-83
2024/04/21 08:34:42;;;;;;;1.55;1.13;;;;;;;7.80;44.28;101733.81;6428022;22;20279;-82
2024/04/21 08:37:37;;;;;;;1.10;0.70;;;;;;;7.89;43.11;101732.84;6427861;22;20223;-81
2024/04/21 08:45:29;;;;;;;1.38;1.27;;;;;;;7.12;45.02;101725.78;6430923;22;20265;-82
2024/04/21 08:47:58;;;;;;;1.30;1.20;;;;;;;7.14;44.72;101737.25;6430759;22;20239;-81
2024/04/21 08:54:34;;;;;;;0.95;0.63;;;;;;;7.36;43.57;101739.38;6451053;22;20215;-83
2024/04/21 08:57:41;;;;;;;1.05;0.70;;;;;;;7.35;43.39;101740.41;6439981;22;20716;-83
2024/04/21 09:00:14;;;;;;;1.08;0.95;;;;;;;7.61;43.62;101742.16;6427538;22;20262;-82
2024/04/21 09:06:44;;;;;;;0.90;0.60;;;;;;;7.83;43.66;101746.97;6425562;22;20239;-82
2024/04/21 09:09:12;;;;;;;0.85;0.60;;;;;;;7.88;43.82;101741.09;6431617;22;20290;-82
2024/04/21 09:11:43;;;;;;;1.38;0.85;;;;;;;7.92;43.43;101746.00;6533950;22;20217;-82
2024/04/21 09:14:57;;;;;;;0.80;0.60;;;;;;;7.82;44.12;101745.28;6535608;22;20245;-80
2024/04/21 09:17:31;;;;;;;1.73;1.00;;;;;;;8.01;43.95;101739.63;6488817;22;20241;-80
2024/04/21 09:19:59;;;;;;;1.45;0.60;;;;;;;7.98;43.57;101736.41;6532716;22;20233;-83
2024/04/21 09:22:38;;;;;;;0.80;0.50;;;;;;;8.33;43.00;101733.44;6490918;22;20230;-85
2024/04/21 09:25:10;;;;;;;0.90;0.70;;;;;;;8.04;42.78;101741.97;6534785;22;20275;-81
2024/04/21 09:27:45;;;;;;;3.92;1.77;;;;;;;8.08;42.15;101729.88;6484151;21;20272;-77
2024/04/21 09:30:19;;;;;;;1.45;0.90;;;;;;;7.94;42.97;101735.88;6482388;22;20295;-78
2024/04/21 09:32:53;;;;;;;1.23;0.65;;;;;;;7.73;42.28;101732.81;6524275;22;20255;-80
2024/04/21 09:35:38;;;;;;;1.10;0.80;;;;;;;7.82;41.91;101742.59;6485561;22;20241;-77
2024/04/21 09:38:11;;;;;;;1.30;0.55;;;;;;;7.57;42.58;101740.81;6481511;22;20336;-80
2024/04/21 09:40:41;;;;;;;0.80;0.50;;;;;;;7.73;42.52;101735.50;6482992;22;20240;-79
2024/04/21 09:43:13;;;;;;;1.20;0.98;;;;;;;8.19;42.35;101734.09;6528385;22;20221;-80
2024/04/21 09:49:55;;;;;;;0.90;0.70;;;;;;;9.26;41.07;101731.19;6524735;22;20289;-81
2024/04/21 09:53:05;;;;;;;1.63;1.52;;;;;;;9.02;40.71;101729.38;6532082;22;20256;-81
2024/04/21 09:59:27;;;;;;;1.00;0.63;;;;;;;8.60;42.06;101729.59;6530304;22;20221;-82
2024/04/21 10:02:11;;;;;;;0.80;0.60;;;;;;;8.57;43.04;101738.84;6444128;22;20241;-80
2024/04/21 10:05:18;;;;;;;0.95;0.85;;;;;;;8.27;43.35;101729.56;6484849;22;20291;-81
2024/04/21 10:08:14;;;;;;;0.90;0.65;;;;;;;7.97;43.56;101740.97;6425034;22;20571;-82
2024/04/21 10:14:47;;;;;;;1.10;0.93;;;;;;;7.58;44.11;101729.03;6533541;22;20237;-81
2024/04/21 10:17:35;;;;;;;1.70;1.30;;;;;;;7.85;43.85;101736.88;6531752;22;20315;-80
2024/04/21 10:21:19;;;;;;;1.10;1.00;;;;;;;8.59;43.11;101739.53;6530749;22;20225;-81
2024/04/21 10:23:50;;;;;;;2.95;1.40;;;;;;;9.16;41.24;101734.91;6489492;22;20268;-81
2024/04/21 10:26:21;;;;;;;0.90;0.75;;;;;;;9.62;40.36;101724.31;6487928;22;20256;-82
2024/04/21 10:28:56;;;;;;;0.80;0.60;;;;;;;9.53;40.70;101730.75;6536812;22;20222;-82
2024/04/21 10:31:37;;;;;;;0.80;0.50;;;;;;;9.29;41.47;101729.00;6541048;22;20221;-82
2024/04/21 10:34:06;;;;;;;1.40;0.80;;;;;;;10.09;40.46;101726.06;6539352;22;20225;-83
2024/04/21 10:36:45;;;;;;;1.20;0.80;;;;;;;10.74;38.85;101711.06;6534927;22;20613;-81
2024/04/21 10:39:23;;;;;;;1.70;1.13;;;;;;;10.00;38.08;101725.28;6536888;22;20232;-83
2024/04/21 10:41:59;;;;;;;1.30;1.10;;;;;;;9.70;39.69;101726.94;6539917;22;20452;-81
2024/04/21 10:44:28;;;;;;;1.90;1.40;;;;;;;9.23;40.40;101723.44;6534165;22;20737;-82
2024/04/21 10:47:01;;;;;;;2.20;0.90;;;;;;;9.31;41.04;101726.09;6532188;22;20301;-82
2024/04/21 10:49:29;;;;;;;0.85;0.57;;;;;;;9.20;41.60;101723.78;6532938;22;20518;-82
2024/04/21 10:52:00;;;;;;;1.85;0.90;;;;;;;9.05;42.43;101735.25;6530899;22;20686;-81
2024/04/21 10:54:30;;;;;;;1.20;0.95;;;;;;;8.87;43.23;101734.63;6489007;22;20233;-82
2024/04/21 10:57:01;;;;;;;1.33;0.80;;;;;;;8.66;43.20;101731.63;6500973;22;20233;-82
2024/04/21 10:59:31;;;;;;;1.85;1.00;;;;;;;8.80;43.05;101738.19;6549111;22;20226;-80
2024/04/21 11:02:04;;;;;;;1.75;0.93;;;;;;;8.79;43.74;101728.41;6503024;22;20233;-80
2024/04/21 11:04:34;;;;;;;1.52;1.20;;;;;;;8.94;43.64;101724.84;6548006;22;20585;-81
2024/04/21 11:07:05;;;;;;;1.10;0.88;;;;;;;8.93;43.64;101723.16;6545955;22;20285;-81
2024/04/21 11:09:33;;;;;;;0.90;0.65;;;;;;;8.94;43.59;101718.59;6544582;22;20292;-81
2024/04/21 11:12:23;;;;;;;1.05;0.95;;;;;;;9.49;43.18;101715.88;6493607;22;20226;-80
2024/04/21 11:14:58;;;;;;;1.02;0.73;;;;;;;9.89;41.35;101715.69;6493831;22;20229;-82
2024/04/21 11:21:15;;;;;;;2.03;1.00;;;;;;;10.73;39.51;101720.19;6540023;22;20303;-83
2024/04/21 11:24:22;;;;;;;1.67;1.57;;;;;;;10.11;40.51;101707.81;6465304;22;20457;-81
2024/04/21 11:30:10;;;;;;;1.90;1.25;;;;;;;10.25;39.64;101715.16;6547871;22;20452;-81
2024/04/21 11:33:10;;;;;;;2.53;1.40;;;;;;;9.58;39.64;101718.38;6504716;22;20213;-83
2024/04/21 11:35:53;;;;;;;1.25;0.60;;;;;;;9.20;39.85;101713.81;6445109;22;20229;-81
2024/04/21 11:38:25;;;;;;;0.90;0.60;;;;;;;9.04;41.18;101705.75;6539006;22;20279;-80
2024/04/21 11:41:18;;;;;;;1.00;0.63;;;;;;;9.53;40.73;101707.28;6542023;22;20263;-82
2024/04/21 11:43:52;;;;;;;5.13;2.65;;;;;;;9.99;40.49;101699.25;6497831;22;20284;-82
2024/04/21 11:49:59;;;;;;;6.53;5.80;;;;;;;9.78;40.90;101699.88;6531056;22;20489;-81
2024/04/21 11:52:35;;;;;;;4.78;4.32;;;;;;;9.87;40.80;101712.34;6534351;22;20527;-82
2024/04/21 11:55:12;;;;;;;1.60;1.07;;;;;;;9.97;39.34;101702.13;6532393;22;20229;-80
2024/04/21 11:58:09;;;;;;;1.10;0.77;;;;;;;9.68;39.67;101710.09;6484813;22;20520;-80
2024/04/21 12:00:52;;;;;;;1.10;0.90;;;;;;;9.48;40.14;101711.53;6490110;22;20542;-82
2024/04/21 12:03:27;;;;;;;1.83;1.07;;;;;;;9.39;40.44;101708.00;6491467;22;20341;-82
2024/04/21 12:06:08;;;;;;;4.78;3.22;;;;;;;9.39;40.38;101708.00;6492455;22;20655;-80
2024/04/21 12:08:45;;;;;;;2.83;2.63;;;;;;;9.14;41.11;101699.16;6451264;22;20225;-81
2024/04/21 12:11:19;;;;;;;4.40;2.60;;;;;;;9.07;41.78;101703.56;6491050;22;20427;-82
2024/04/21 12:14:09;;;;;;;1.58;1.38;;;;;;;9.18;41.24;101710.44;6448366;22;20610;-80
2024/04/21 12:16:51;;;;;;;2.83;2.30;;;;;;;9.12;42.35;101701.19;6489495;22;20267;-81
2024/04/21 12:19:32;;;;;;;1.75;1.48;;;;;;;9.54;41.38;101706.25;6533451;22;20264;-80
2024/04/21 12:22:12;;;;;;;4.13;3.83;;;;;;;9.80;40.95;101708.66;6489719;22;20225;-80
2024/04/21 12:24:46;;;;;;;0.90;0.60;;;;;;;9.96;40.25;101700.47;6531500;22;20300;-81
2024/04/21 12:27:32;;;;;;;1.00;0.80;;;;;;;10.15;39.35;101701.00;6533719;22;20272;-79
2024/04/21 12:30:08;;;;;;;2.10;0.80;;;;;;;10.78;38.94;101690.69;6489807;22;20229;-81
2024/04/21 12:32:56;;;;;;;4.37;3.67;;;;;;;10.56;39.00;101696.97;6530760;22;20456;-82
2024/04/21 12:35:29;;;;;;;1.67;1.20;;;;;;;10.45;38.48;101690.16;6487417;22;20456;-81
2024/04/21 12:38:04;;;;;;;3.43;1.80;;;;;;;10.45;38.29;101700.13;6534008;22;20444;-81
2024/04/21 12:40:39;;;;;;;3.23;1.20;;;;;;;10.04;38.53;101684.19;6536079;22;20433;-81
2024/04/21 12:43:16;;;;;;;1.47;1.07;;;;;;;10.15;39.77;101684.78;6497768;22;20472;-81
2024/04/21 12:45:54;;;;;;;1.83;1.15;;;;;;;10.29;39.30;101684.03;6543668;22;20421;-81
2024/04/21 12:48:47;;;;;;;1.05;0.95;;;;;;;10.09;39.87;101685.50;6540867;22;20217;-81
2024/04/21 12:51:19;;;;;;;1.30;0.90;;;;;;;9.81;41.05;101685.19;6530891;22;20267;-79
2024/04/21 12:54:04;;;;;;;1.60;1.10;;;;;;;9.99;40.37;101685.72;6531866;22;20225;-80
2024/04/21 12:56:39;;;;;;;1.75;0.80;;;;;;;10.14;40.91;101675.81;6487784;22;20452;-80
2024/04/21 12:59:13;;;;;;;1.00;0.80;;;;;;;10.07;40.89;101674.03;6530803;22;20318;-81
2024/04/21 13:02:05;;;;;;;1.27;0.90;;;;;;;9.62;41.04;101674.81;6530987;22;20456;-81
2024/04/21 13:04:48;;;;;;;1.65;0.85;;;;;;;9.36;41.73;101677.78;6487372;22;20448;-79
2024/04/21 13:07:25;;;;;;;1.20;0.95;;;;;;;9.26;41.08;101685.25;6532854;22;20288;-81
2024/04/21 13:10:19;;;;;;;1.00;0.82;;;;;;;9.05;42.30;101681.25;6489185;22;20241;-80
2024/04/21 13:13:05;;;;;;;1.10;1.00;;;;;;;8.94;43.58;101676.25;6487261;22;20213;-81
2024/04/21 13:15:55;;;;;;;1.33;0.88;;;;;;;8.91;44.03;101681.13;6489658;22;20225;-81
2024/04/21 13:19:06;;;;;;;1.33;0.95;;;;;;;9.12;44.55;101679.56;6489599;22;20289;-81
2024/04/21 13:21:40;;;;;;;1.55;1.45;;;;;;;9.18;43.76;101688.00;6532462;22;20217;-79
2024/04/21 13:24:12;;;;;;;3.08;1.23;;;;;;;9.38;43.79;101684.72;6490533;22;20281;-80
2024/04/21 13:26:43;;;;;;;1.80;1.10;;;;;;;9.55;43.86;101685.47;6535012;22;20284;-81
2024/04/21 13:29:14;;;;;;;1.55;1.02;;;;;;;9.85;43.11;101683.78;6534813;22;20221;-81
2024/04/21 13:31:42;;;;;;;1.57;1.00;;;;;;;10.29;42.26;101681.31;6531041;22;20468;-81
2024/04/21 13:34:13;;;;;;;1.75;1.65;;;;;;;10.11;43.06;101681.59;6487681;22;20489;-79
2024/04/21 13:36:41;;;;;;;1.42;0.80;;;;;;;9.67;43.44;101684.06;6533931;22;20296;-82
2024/04/21 13:46:29;;;;;;;1.77;1.33;;;;;;;9.22;44.36;101700.13;6549204;21;20257;-82
2024/04/21 13:48:57;;;;;;;1.63;1.10;;;;;;;9.03;44.87;101691.41;6549188;21;20276;-80
2024/04/21 13:51:28;;;;;;;1.23;0.80;;;;;;;9.20;44.80;101697.59;6505674;22;20284;-80
2024/04/21 13:54:00;;;;;;;3.63;1.38;;;;;;;9.54;44.10;101691.88;6550466;22;20333;-81
2024/04/21 13:56:31;;;;;;;1.50;1.30;;;;;;;9.80;43.13;101684.31;6550870;22;20300;-82
2024/04/21 13:59:02;;;;;;;2.30;1.98;;;;;;;10.32;42.44;101689.91;6552866;21;20225;-81
2024/04/21 14:01:32;;;;;;;2.00;1.30;;;;;;;10.92;42.21;101677.34;6550028;22;20221;-80
2024/04/21 14:04:03;;;;;;;4.13;1.80;;;;;;;11.10;41.11;101680.53;6548901;22;20516;-79
2024/04/21 14:06:34;;;;;;;1.10;0.97;;;;;;;11.04;40.81;101681.28;6507469;21;20472;-81
2024/04/21 14:09:05;;;;;;;1.23;1.10;;;;;;;10.71;38.71;101684.31;6553065;21;20484;-81
2024/04/21 14:11:33;;;;;;;2.40;2.20;;;;;;;10.73;39.50;101690.41;6552855;21;20493;-82
2024/04/21 14:14:07;;;;;;;1.23;1.13;;;;;;;10.75;39.87;101684.78;6550590;21;20444;-79
2024/04/21 14:16:35;;;;;;;1.97;1.37;;;;;;;10.46;40.34;101678.28;6550211;22;20464;-79
2024/04/21 14:19:07;;;;;;;2.20;1.73;;;;;;;10.26;39.98;101673.59;6548681;22;20516;-82
2024/04/21 14:22:01;;;;;;;2.40;1.67;;;;;;;10.17;39.76;101674.63;6549875;22;20485;-81
2024/04/21 14:24:39;;;;;;;2.55;2.35;;;;;;;10.04;40.68;101676.06;6550882;22;20441;-80
2024/04/21 14:27:07;;;;;;;1.50;1.27;;;;;;;10.19;41.40;101676.16;6551205;22;20233;-81
2024/04/21 14:29:42;;;;;;;4.97;1.27;;;;;;;10.03;42.72;101679.78;6550442;22;20453;-82
2024/04/21 14:32:56;;;;;;;1.00;0.88;;;;;;;9.97;41.92;101679.69;6550739;22;20563;-81
2024/04/21 14:35:49;;;;;;;1.48;1.23;;;;;;;10.18;42.28;101676.31;6547301;22;20229;-81
2024/04/21 14:38:23;;;;;;;1.47;1.30;;;;;;;10.32;42.28;101680.94;6551715;22;20240;-82
2024/04/21 14:40:56;;;;;;;1.40;1.00;;;;;;;9.81;43.19;101680.63;6551356;22;20455;-79